createdAt,value
2023-04-27T00:00:13.141Z,81.286621
2023-04-27T00:01:22.883Z,81.494141
2023-04-27T00:02:32.607Z,81.5979
2023-04-27T00:03:42.529Z,81.494141
2023-04-27T00:04:52.130Z,81.738281
2023-04-27T00:06:00.796Z,81.842041
2023-04-27T00:07:10.503Z,82.250977
2023-04-27T00:08:19.223Z,82.354736
2023-04-27T00:09:28.988Z,82.769775
2023-04-27T00:10:38.713Z,82.769775
2023-04-27T00:11:48.464Z,82.769775
2023-04-27T00:12:58.176Z,83.178711
2023-04-27T00:14:06.873Z,83.422852
2023-04-27T00:15:16.544Z,83.48999
2023-04-27T00:16:25.257Z,83.38623
2023-04-27T00:17:33.876Z,83.69751
2023-04-27T00:18:42.551Z,83.38623
2023-04-27T00:19:52.248Z,83.074951
2023-04-27T00:21:00.933Z,83.074951
2023-04-27T00:22:09.702Z,83.074951
2023-04-27T00:23:18.384Z,83.178711
2023-04-27T00:24:28.054Z,83.48999
2023-04-27T00:25:37.769Z,83.795166
2023-04-27T00:26:46.447Z,83.59375
2023-04-27T00:27:56.112Z,83.59375
2023-04-27T00:29:05.804Z,83.69751
2023-04-27T00:30:14.526Z,83.898926
2023-04-27T00:31:24.314Z,84.002686
2023-04-27T00:32:34.158Z,83.898926
2023-04-27T00:33:42.808Z,83.795166
2023-04-27T00:34:52.477Z,83.898926
2023-04-27T00:36:01.226Z,84.619141
2023-04-27T00:37:08.960Z,84.7229
2023-04-27T00:38:18.645Z,84.515381
2023-04-27T00:39:28.353Z,84.210205
2023-04-27T00:40:37.015Z,84.210205
2023-04-27T00:41:45.726Z,84.313965
2023-04-27T00:42:54.464Z,84.7229
2023-04-27T00:44:04.176Z,84.82666
2023-04-27T00:45:13.853Z,85.03418
2023-04-27T00:46:23.598Z,85.443115
2023-04-27T00:47:32.327Z,85.754395
2023-04-27T00:48:40.930Z,85.546875
2023-04-27T00:49:49.608Z,85.137939
2023-04-27T00:50:59.360Z,85.137939
2023-04-27T00:52:08.124Z,84.82666
2023-04-27T00:53:15.787Z,85.03418
2023-04-27T00:54:25.504Z,85.241699
2023-04-27T00:55:34.194Z,85.241699
2023-04-27T00:56:43.862Z,85.137939
2023-04-27T00:57:52.541Z,85.137939
2023-04-27T00:59:02.203Z,85.137939
2023-04-27T01:00:11.894Z,85.443115
2023-04-27T01:01:20.602Z,85.754395
2023-04-27T01:02:29.338Z,85.546875
2023-04-27T01:03:39.180Z,85.406494
2023-04-27T01:04:48.641Z,85.510254
2023-04-27T01:05:56.368Z,85.510254
2023-04-27T01:07:06.107Z,85.406494
2023-04-27T01:08:15.994Z,85.614014
2023-04-27T01:09:25.822Z,85.81543
2023-04-27T01:10:42.566Z,85.510254
2023-04-27T01:11:51.244Z,84.686279
2023-04-27T01:13:00.009Z,84.58252
2023-04-27T01:14:10.726Z,84.47876
2023-04-27T01:15:19.473Z,84.686279
2023-04-27T01:16:29.168Z,84.686279
2023-04-27T01:17:36.834Z,84.686279
2023-04-27T01:18:45.482Z,84.93042
2023-04-27T01:19:55.189Z,84.7229
2023-04-27T01:21:03.883Z,84.82666
2023-04-27T01:22:12.531Z,85.03418
2023-04-27T01:23:21.270Z,84.82666
2023-04-27T01:24:29.901Z,84.82666
2023-04-27T01:25:39.575Z,84.93042
2023-04-27T01:26:47.248Z,85.137939
2023-04-27T01:27:55.951Z,85.339355
2023-04-27T01:29:05.647Z,85.443115
2023-04-27T01:30:15.289Z,85.241699
2023-04-27T01:31:24.973Z,85.03418
2023-04-27T01:32:34.683Z,85.137939
2023-04-27T01:33:43.369Z,85.858154
2023-04-27T01:34:53.006Z,86.682129
2023-04-27T01:36:01.743Z,87.194824
2023-04-27T01:37:09.401Z,87.506104
2023-04-27T01:38:19.116Z,87.298584
2023-04-27T01:39:28.852Z,87.091064
2023-04-27T01:40:37.467Z,86.883545
2023-04-27T01:41:47.156Z,86.743164
2023-04-27T01:42:56.854Z,86.639404
2023-04-27T01:44:06.502Z,86.334229
2023-04-27T01:45:14.150Z,86.022949
2023-04-27T01:46:22.901Z,85.919189
2023-04-27T01:47:32.516Z,86.230469
2023-04-27T01:48:41.179Z,86.535645
2023-04-27T01:49:49.856Z,86.230469
2023-04-27T01:50:58.509Z,85.81543
2023-04-27T01:52:07.155Z,85.510254
2023-04-27T01:53:16.841Z,85.510254
2023-04-27T01:54:28.148Z,85.81543
2023-04-27T01:55:35.183Z,85.406494
2023-04-27T01:56:44.807Z,85.302734
2023-04-27T01:57:54.481Z,85.302734
2023-04-27T01:59:04.187Z,85.339355
2023-04-27T02:00:13.844Z,85.339355
2023-04-27T02:01:22.549Z,85.339355
2023-04-27T02:02:32.225Z,85.443115
2023-04-27T02:03:39.935Z,85.546875
2023-04-27T02:04:48.585Z,86.578369
2023-04-27T02:05:58.219Z,87.70752
2023-04-27T02:07:06.904Z,87.811279
2023-04-27T02:08:16.630Z,87.506104
2023-04-27T02:09:26.300Z,87.194824
2023-04-27T02:10:35.938Z,86.883545
2023-04-27T02:11:45.633Z,86.474609
2023-04-27T02:12:54.339Z,86.26709
2023-04-27T02:14:03.085Z,86.05957
2023-04-27T02:15:12.728Z,86.05957
2023-04-27T02:16:21.411Z,86.578369
2023-04-27T02:17:29.066Z,86.71875
2023-04-27T02:18:38.725Z,86.82251
2023-04-27T02:19:47.383Z,86.92627
2023-04-27T02:20:57.033Z,86.517334
2023-04-27T02:22:04.683Z,86.413574
2023-04-27T02:23:14.368Z,86.206055
2023-04-27T02:24:24.076Z,85.894775
2023-04-27T02:25:33.855Z,85.791016
2023-04-27T02:26:42.566Z,86.04126
2023-04-27T02:27:51.251Z,86.450195
2023-04-27T02:29:00.900Z,86.761475
2023-04-27T02:30:10.535Z,86.761475
2023-04-27T02:31:19.318Z,86.657715
2023-04-27T02:32:27.914Z,86.553955
2023-04-27T02:33:37.653Z,86.450195
2023-04-27T02:34:46.292Z,86.553955
2023-04-27T02:35:55.949Z,87.06665
2023-04-27T02:37:04.602Z,86.968994
2023-04-27T02:38:13.243Z,87.005615
2023-04-27T02:39:22.912Z,87.72583
2023-04-27T02:40:30.562Z,88.037109
2023-04-27T02:41:38.216Z,87.792969
2023-04-27T02:42:47.881Z,87.27417
2023-04-27T02:43:57.580Z,86.968994
2023-04-27T02:45:07.216Z,87.72583
2023-04-27T02:46:16.905Z,88.037109
2023-04-27T02:47:24.549Z,88.140869
2023-04-27T02:48:32.243Z,87.481689
2023-04-27T02:49:41.921Z,87.37793
2023-04-27T02:50:50.571Z,86.761475
2023-04-27T02:52:00.219Z,86.2854
2023-04-27T02:53:08.870Z,86.38916
2023-04-27T02:54:18.553Z,87.524414
2023-04-27T02:55:28.202Z,88.037109
2023-04-27T02:56:35.908Z,88.140869
2023-04-27T02:57:44.567Z,88.244629
2023-04-27T02:58:54.382Z,88.244629
2023-04-27T03:00:04.098Z,88.244629
2023-04-27T03:01:12.806Z,88.244629
2023-04-27T03:02:22.477Z,88.140869
2023-04-27T03:03:32.253Z,87.72583
2023-04-27T03:04:41.883Z,87.316895
2023-04-27T03:05:49.500Z,87.524414
2023-04-27T03:06:57.177Z,87.82959
2023-04-27T03:08:07.809Z,87.93335
2023-04-27T03:09:17.534Z,87.93335
2023-04-27T03:10:26.138Z,87.768555
2023-04-27T03:11:37.300Z,88.48877
2023-04-27T03:12:45.468Z,88.903809
2023-04-27T03:13:55.156Z,89.318848
2023-04-27T03:15:03.845Z,89.111328
2023-04-27T03:16:12.546Z,88.592529
2023-04-27T03:17:22.240Z,88.079834
2023-04-27T03:18:30.888Z,87.664795
2023-04-27T03:19:39.646Z,87.255859
2023-04-27T03:20:48.284Z,87.561035
2023-04-27T03:21:56.978Z,88.079834
2023-04-27T03:23:06.648Z,88.427734
2023-04-27T03:24:14.378Z,88.946533
2023-04-27T03:25:22.047Z,89.007568
2023-04-27T03:26:31.714Z,88.903809
2023-04-27T03:27:41.383Z,88.696289
2023-04-27T03:28:50.035Z,88.38501
2023-04-27T03:29:58.704Z,88.38501
2023-04-27T03:31:07.362Z,88.079834
2023-04-27T03:32:17.097Z,88.079834
2023-04-27T03:33:25.713Z,87.976074
2023-04-27T03:34:34.423Z,87.976074
2023-04-27T03:35:44.075Z,87.872314
2023-04-27T03:36:53.713Z,87.82959
2023-04-27T03:38:02.417Z,87.628174
2023-04-27T03:39:11.166Z,87.524414
2023-04-27T03:40:19.831Z,87.213135
2023-04-27T03:41:29.496Z,86.901855
2023-04-27T03:42:37.205Z,86.737061
2023-04-27T03:43:47.030Z,86.798096
2023-04-27T03:44:56.774Z,86.798096
2023-04-27T03:46:06.440Z,86.798096
2023-04-27T03:47:15.091Z,86.901855
2023-04-27T03:48:23.815Z,87.213135
2023-04-27T03:49:33.472Z,87.109375
2023-04-27T03:50:43.146Z,87.005615
2023-04-27T03:51:50.827Z,86.901855
2023-04-27T03:52:59.478Z,86.798096
2023-04-27T03:54:08.139Z,86.700439
2023-04-27T03:55:16.837Z,86.657715
2023-04-27T03:56:26.493Z,86.761475
2023-04-27T03:57:36.270Z,87.17041
2023-04-27T03:58:45.931Z,87.27417
2023-04-27T03:59:55.643Z,87.481689
2023-04-27T04:01:05.298Z,87.481689
2023-04-27T04:02:12.978Z,87.27417
2023-04-27T04:03:22.912Z,86.968994
2023-04-27T04:04:32.465Z,86.968994
2023-04-27T04:05:42.015Z,86.968994
2023-04-27T04:06:51.695Z,86.761475
2023-04-27T04:08:01.556Z,86.865234
2023-04-27T04:09:11.498Z,87.06665
2023-04-27T04:10:20.018Z,86.761475
2023-04-27T04:11:27.670Z,86.553955
2023-04-27T04:12:37.362Z,86.346436
2023-04-27T04:13:45.997Z,86.14502
2023-04-27T04:14:53.658Z,86.346436
2023-04-27T04:16:02.417Z,86.61499
2023-04-27T04:17:11.040Z,86.413574
2023-04-27T04:18:20.702Z,86.206055
2023-04-27T04:19:29.396Z,85.998535
2023-04-27T04:20:39.168Z,86.346436
2023-04-27T04:21:48.804Z,86.553955
2023-04-27T04:22:57.492Z,86.553955
2023-04-27T04:24:06.343Z,86.657715
2023-04-27T04:25:16.050Z,86.309814
2023-04-27T04:26:24.692Z,86.206055
2023-04-27T04:27:33.346Z,86.206055
2023-04-27T04:28:42.021Z,86.413574
2023-04-27T04:29:49.671Z,86.309814
2023-04-27T04:30:59.344Z,86.309814
2023-04-27T04:32:07.983Z,86.309814
2023-04-27T04:33:16.692Z,86.309814
2023-04-27T04:34:25.370Z,86.413574
2023-04-27T04:35:34.013Z,87.298584
2023-04-27T04:36:43.682Z,86.37085
2023-04-27T04:37:52.344Z,86.883545
2023-04-27T04:39:00.989Z,87.774658
2023-04-27T04:40:10.849Z,87.463379
2023-04-27T04:41:19.373Z,87.219238
2023-04-27T04:42:28.042Z,86.602783
2023-04-27T04:43:36.694Z,86.187744
2023-04-27T04:44:45.352Z,86.187744
2023-04-27T04:45:53.007Z,86.083984
2023-04-27T04:47:02.722Z,85.467529
2023-04-27T04:48:12.307Z,85.510254
2023-04-27T04:49:20.012Z,85.81543
2023-04-27T04:50:29.658Z,85.81543
2023-04-27T04:51:39.322Z,85.510254
2023-04-27T04:52:49.040Z,84.851074
2023-04-27T04:53:59.870Z,84.539795
2023-04-27T04:55:07.416Z,84.606934
2023-04-27T04:56:17.053Z,84.295654
2023-04-27T04:57:26.744Z,84.564209
2023-04-27T04:58:36.393Z,84.155273
2023-04-27T04:59:44.095Z,83.947754
2023-04-27T05:00:53.804Z,84.051514
2023-04-27T05:02:03.563Z,84.155273
2023-04-27T05:03:12.160Z,84.051514
2023-04-27T05:04:21.092Z,84.118652
2023-04-27T05:05:30.529Z,84.014893
2023-04-27T05:06:39.197Z,84.118652
2023-04-27T05:07:48.886Z,83.807373
2023-04-27T05:08:58.582Z,83.703613
2023-04-27T05:10:07.229Z,83.703613
2023-04-27T05:11:16.939Z,83.807373
2023-04-27T05:12:25.602Z,84.014893
2023-04-27T05:13:34.272Z,83.911133
2023-04-27T05:14:43.961Z,83.911133
2023-04-27T05:15:52.691Z,83.605957
2023-04-27T05:17:00.397Z,83.294678
2023-04-27T05:18:09.172Z,83.026123
2023-04-27T05:19:17.756Z,83.190918
2023-04-27T05:20:27.575Z,83.398438
2023-04-27T05:21:36.371Z,83.154297
2023-04-27T05:22:45.012Z,82.946777
2023-04-27T05:23:54.757Z,83.050537
2023-04-27T05:25:04.508Z,82.745361
2023-04-27T05:26:14.174Z,82.574463
2023-04-27T05:27:22.929Z,82.885742
2023-04-27T05:28:31.597Z,82.409668
2023-04-27T05:29:41.279Z,82.373047
2023-04-27T05:30:50.040Z,82.922363
2023-04-27T05:31:58.827Z,83.642578
2023-04-27T05:33:08.438Z,84.259033
2023-04-27T05:34:17.093Z,84.362793
2023-04-27T05:35:25.796Z,84.564209
2023-04-27T05:36:35.461Z,84.564209
2023-04-27T05:37:45.112Z,84.771729
2023-04-27T05:38:54.785Z,84.564209
2023-04-27T05:40:02.498Z,84.320068
2023-04-27T05:41:12.342Z,83.807373
2023-04-27T05:42:21.955Z,83.563232
2023-04-27T05:43:31.628Z,83.258057
2023-04-27T05:44:40.317Z,83.502197
2023-04-27T05:45:50.054Z,83.703613
2023-04-27T05:46:58.724Z,83.807373
2023-04-27T05:48:08.423Z,83.807373
2023-04-27T05:49:16.129Z,83.605957
2023-04-27T05:50:25.802Z,82.843018
2023-04-27T05:51:35.463Z,82.092285
2023-04-27T05:52:44.124Z,81.268311
2023-04-27T05:53:52.790Z,81.12793
2023-04-27T05:55:01.500Z,80.102539
2023-04-27T05:56:10.212Z,79.553223
2023-04-27T05:57:20.006Z,79.589844
2023-04-27T05:58:29.636Z,79.754639
2023-04-27T05:59:39.421Z,79.754639
2023-04-27T06:00:49.154Z,79.345703
2023-04-27T06:01:57.845Z,78.833008
2023-04-27T06:03:07.616Z,78.320312
2023-04-27T06:04:17.437Z,78.424072
2023-04-27T06:05:27.109Z,78.594971
2023-04-27T06:06:36.712Z,78.35083
2023-04-27T06:07:44.384Z,78.24707
2023-04-27T06:08:53.080Z,78.045654
2023-04-27T06:10:02.796Z,78.521729
2023-04-27T06:11:12.515Z,78.35083
2023-04-27T06:12:21.249Z,78.759766
2023-04-27T06:13:30.991Z,78.826904
2023-04-27T06:14:40.617Z,78.662109
2023-04-27T06:15:50.389Z,78.625488
2023-04-27T06:16:59.053Z,78.826904
2023-04-27T06:18:06.805Z,79.034424
2023-04-27T06:19:16.462Z,79.13208
2023-04-27T06:20:26.155Z,79.23584
2023-04-27T06:21:34.862Z,78.521729
2023-04-27T06:22:44.533Z,78.485107
2023-04-27T06:23:53.332Z,78.686523
2023-04-27T06:25:03.008Z,78.961182
2023-04-27T06:26:11.746Z,78.753662
2023-04-27T06:27:20.409Z,78.106689
2023-04-27T06:28:30.124Z,78.00293
2023-04-27T06:29:38.791Z,77.79541
2023-04-27T06:30:47.645Z,77.79541
2023-04-27T06:31:57.346Z,77.758789
2023-04-27T06:33:06.130Z,77.313232
2023-04-27T06:34:15.808Z,77.313232
2023-04-27T06:35:24.457Z,77.111816
2023-04-27T06:36:34.206Z,77.008057
2023-04-27T06:37:43.866Z,77.252197
2023-04-27T06:38:54.566Z,77.008057
2023-04-27T06:40:03.298Z,76.702881
2023-04-27T06:41:12.013Z,76.501465
2023-04-27T06:42:19.665Z,76.702881
2023-04-27T06:43:28.330Z,76.501465
2023-04-27T06:44:38.020Z,76.77002
2023-04-27T06:45:46.811Z,76.77002
2023-04-27T06:46:55.421Z,76.324463
2023-04-27T06:48:04.098Z,75.817871
2023-04-27T06:49:13.988Z,75.817871
2023-04-27T06:50:22.498Z,75.506592
2023-04-27T06:51:31.264Z,75.268555
2023-04-27T06:52:38.992Z,74.554443
2023-04-27T06:53:48.642Z,74.182129
2023-04-27T06:54:57.305Z,74.249268
2023-04-27T06:56:07.006Z,74.383545
2023-04-27T06:57:16.772Z,74.145508
2023-04-27T06:58:26.421Z,74.047852
2023-04-27T06:59:36.098Z,74.047852
2023-04-27T07:00:45.765Z,74.145508
2023-04-27T07:01:54.574Z,73.944092
2023-04-27T07:03:04.289Z,74.658203
2023-04-27T07:04:12.979Z,74.554443
2023-04-27T07:05:21.560Z,74.554443
2023-04-27T07:06:30.253Z,74.420166
2023-04-27T07:07:38.949Z,74.517822
2023-04-27T07:08:48.602Z,73.535156
2023-04-27T07:09:58.297Z,74.047852
2023-04-27T07:11:05.981Z,73.431396
2023-04-27T07:12:15.680Z,73.840332
2023-04-27T07:13:25.362Z,73.974609
2023-04-27T07:14:34.076Z,73.571777
2023-04-27T07:15:43.746Z,72.821045
2023-04-27T07:16:52.433Z,71.563721
2023-04-27T07:18:02.341Z,71.466064
2023-04-27T07:19:11.973Z,71.191406
2023-04-27T07:20:20.467Z,71.228027
2023-04-27T07:21:30.202Z,71.734619
2023-04-27T07:22:39.865Z,71.972656
2023-04-27T07:23:50.536Z,71.734619
2023-04-27T07:25:00.254Z,71.905518
2023-04-27T07:26:09.932Z,71.868896
2023-04-27T07:27:19.625Z,71.160889
2023-04-27T07:28:27.284Z,70.477295
2023-04-27T07:29:35.928Z,70.855713
2023-04-27T07:30:45.666Z,71.392822
2023-04-27T07:31:54.404Z,72.277832
2023-04-27T07:33:04.141Z,71.325684
2023-04-27T07:34:13.806Z,71.020508
2023-04-27T07:35:22.432Z,70.550537
2023-04-27T07:36:32.114Z,70.446777
2023-04-27T07:37:40.789Z,70.98999
2023-04-27T07:38:50.494Z,70.88623
2023-04-27T07:40:00.194Z,70.751953
2023-04-27T07:41:08.856Z,70.477295
2023-04-27T07:42:17.553Z,70.819092
2023-04-27T07:43:26.226Z,70.3125
2023-04-27T07:44:35.914Z,69.873047
2023-04-27T07:45:45.580Z,68.823242
2023-04-27T07:46:54.308Z,69.024658
2023-04-27T07:48:03.054Z,68.95752
2023-04-27T07:49:12.851Z,69.189453
2023-04-27T07:50:22.372Z,69.598389
2023-04-27T07:51:30.974Z,69.970703
2023-04-27T07:52:40.645Z,69.226074
2023-04-27T07:53:50.307Z,69.055176
2023-04-27T07:55:00.068Z,69.262695
2023-04-27T07:56:09.726Z,69.329834
2023-04-27T07:57:18.405Z,69.128418
2023-04-27T07:58:28.073Z,68.688965
2023-04-27T07:59:37.764Z,68.554688
2023-04-27T08:00:47.420Z,68.011475
2023-04-27T08:02:04.170Z,66.900635
2023-04-27T08:03:05.953Z,67.407227
2023-04-27T08:04:15.589Z,67.63916
2023-04-27T08:05:25.627Z,67.541504
2023-04-27T08:06:35.039Z,67.504883
2023-04-27T08:07:45.219Z,67.712402
2023-04-27T08:08:53.050Z,66.595459
2023-04-27T08:10:01.716Z,66.796875
2023-04-27T08:11:11.371Z,66.766357
2023-04-27T08:12:20.152Z,65.85083
2023-04-27T08:13:29.818Z,66.387939
2023-04-27T08:14:38.512Z,64.428711
2023-04-27T08:15:45.182Z,65.039062
2023-04-27T08:16:54.872Z,65.41748
2023-04-27T08:18:04.551Z,66.229248
2023-04-27T08:19:14.351Z,65.893555
2023-04-27T08:20:23.903Z,65.386963
2023-04-27T08:21:33.655Z,65.283203
2023-04-27T08:22:43.475Z,64.807129
2023-04-27T08:23:52.116Z,64.910889
2023-04-27T08:25:00.763Z,65.447998
2023-04-27T08:26:10.435Z,66.693115
2023-04-27T08:27:20.210Z,67.340088
2023-04-27T08:28:28.873Z,66.192627
2023-04-27T08:29:38.597Z,65.148926
2023-04-27T08:30:47.231Z,63.934326
2023-04-27T08:31:57.182Z,64.208984
2023-04-27T08:33:04.651Z,63.903809
2023-04-27T08:34:13.326Z,62.860107
2023-04-27T08:35:22.975Z,62.93335
2023-04-27T08:36:32.639Z,62.286377
2023-04-27T08:37:42.334Z,62.792969
2023-04-27T08:38:51.986Z,62.921143
2023-04-27T08:39:59.639Z,63.763428
2023-04-27T08:41:20.601Z,63.964844
2023-04-27T08:42:20.023Z,63.861084
2023-04-27T08:43:28.727Z,62.921143
2023-04-27T08:44:37.390Z,62.585449
2023-04-27T08:45:46.027Z,63.067627
2023-04-27T08:46:54.823Z,62.487793
2023-04-27T08:48:04.461Z,62.286377
2023-04-27T08:49:14.476Z,62.286377
2023-04-27T08:50:20.721Z,62.762451
2023-04-27T08:51:30.371Z,62.5
2023-04-27T08:52:40.030Z,59.466553
2023-04-27T08:53:49.706Z,59.362793
2023-04-27T08:54:59.350Z,59.436035
2023-04-27T08:56:08.006Z,60.546875
2023-04-27T08:57:17.699Z,59.741211
2023-04-27T08:58:25.350Z,59.613037
2023-04-27T08:59:34.043Z,59.613037
2023-04-27T09:00:43.729Z,60.36377
2023-04-27T09:01:52.381Z,58.996582
2023-04-27T09:03:01.152Z,58.062744
2023-04-27T09:04:10.838Z,55.310059
2023-04-27T09:05:19.423Z,56.219482
2023-04-27T09:06:29.109Z,55.010986
2023-04-27T09:07:35.806Z,55.438232
2023-04-27T09:08:44.439Z,55.914307
2023-04-27T09:09:54.129Z,56.091309
2023-04-27T09:11:02.777Z,55.285645
2023-04-27T09:12:12.425Z,55.712891
2023-04-27T09:13:22.192Z,56.695557
2023-04-27T09:14:30.850Z,54.351807
2023-04-27T09:15:40.503Z,53.320312
2023-04-27T09:16:48.223Z,53.118896
2023-04-27T09:17:55.905Z,53.625488
2023-04-27T09:19:04.543Z,54.400635
2023-04-27T09:20:14.209Z,54.803467
2023-04-27T09:21:22.862Z,53.295898
2023-04-27T09:22:32.568Z,54.980469
2023-04-27T09:23:41.217Z,55.181885
2023-04-27T09:24:50.904Z,54.47998
2023-04-27T09:26:00.567Z,55.584717
2023-04-27T09:27:10.206Z,54.681396
2023-04-27T09:28:19.911Z,53.198242
2023-04-27T09:29:28.559Z,53.399658
2023-04-27T09:30:37.262Z,52.91748
2023-04-27T09:31:46.011Z,53.094482
2023-04-27T09:32:54.713Z,53.973389
2023-04-27T09:34:04.393Z,53.649902
2023-04-27T09:35:13.099Z,52.514648
2023-04-27T09:36:21.739Z,52.23999
2023-04-27T09:37:31.433Z,53.649902
2023-04-27T09:38:40.154Z,52.368164
2023-04-27T09:39:48.858Z,53.320312
2023-04-27T09:40:58.530Z,52.069092
2023-04-27T09:42:07.247Z,51.013184
2023-04-27T09:43:16.949Z,48.809814
2023-04-27T09:44:26.661Z,49.432373
2023-04-27T09:45:34.378Z,50.915527
2023-04-27T09:46:43.989Z,49.609375
2023-04-27T09:47:53.795Z,48.809814
2023-04-27T09:49:02.439Z,49.249268
2023-04-27T09:50:12.130Z,51.586914
2023-04-27T09:51:21.789Z,52.868652
2023-04-27T09:52:31.582Z,52.441406
2023-04-27T09:53:41.274Z,52.716064
2023-04-27T09:54:50.018Z,51.464844
2023-04-27T09:55:59.737Z,52.142334
2023-04-27T09:57:09.525Z,51.287842
2023-04-27T09:58:19.193Z,49.957275
2023-04-27T09:59:27.864Z,50.65918
2023-04-27T10:00:37.690Z,51.843262
2023-04-27T10:01:47.473Z,50.415039
2023-04-27T10:02:57.638Z,49.01123
2023-04-27T10:04:06.209Z,48.33374
2023-04-27T10:05:15.876Z,49.456787
2023-04-27T10:06:24.525Z,49.780273
2023-04-27T10:07:34.214Z,49.658203
2023-04-27T10:08:42.964Z,47.851562
2023-04-27T10:09:52.668Z,48.278809
2023-04-27T10:11:02.356Z,48.376465
2023-04-27T10:12:12.050Z,49.682617
2023-04-27T10:13:19.757Z,48.455811
2023-04-27T10:14:29.414Z,47.650146
2023-04-27T10:15:38.082Z,47.271729
2023-04-27T10:16:46.952Z,47.717285
2023-04-27T10:17:56.467Z,49.530029
2023-04-27T10:19:04.933Z,48.480225
2023-04-27T10:20:14.625Z,48.577881
2023-04-27T10:21:23.348Z,47.576904
2023-04-27T10:22:33.035Z,48.925781
2023-04-27T10:23:42.744Z,48.779297
2023-04-27T10:24:51.397Z,48.22998
2023-04-27T10:26:01.134Z,47.406006
2023-04-27T10:27:09.804Z,47.784424
2023-04-27T10:28:19.545Z,45.904541
2023-04-27T10:29:29.184Z,48.052979
2023-04-27T10:30:36.983Z,48.052979
2023-04-27T10:31:44.573Z,47.998047
2023-04-27T10:32:54.472Z,48.321533
2023-04-27T10:34:03.113Z,50.079346
2023-04-27T10:35:11.795Z,49.072266
2023-04-27T10:36:20.507Z,48.291016
2023-04-27T10:37:30.222Z,49.267578
2023-04-27T10:38:36.893Z,50.598145
2023-04-27T10:39:48.938Z,51.586914
2023-04-27T10:40:56.340Z,50.708008
2023-04-27T10:42:05.148Z,50.958252
2023-04-27T10:43:14.857Z,50.311279
2023-04-27T10:44:24.793Z,49.157715
2023-04-27T10:45:34.431Z,47.229004
2023-04-27T10:46:42.212Z,47.650146
2023-04-27T10:47:50.928Z,48.754883
2023-04-27T10:49:00.581Z,48.254395
2023-04-27T10:50:09.257Z,48.33374
2023-04-27T10:51:16.930Z,47.631836
2023-04-27T10:52:26.622Z,46.905518
2023-04-27T10:53:36.357Z,46.704102
2023-04-27T10:54:46.031Z,46.502686
2023-04-27T10:55:54.725Z,48.187256
2023-04-27T10:57:02.464Z,46.862793
2023-04-27T10:58:11.134Z,45.800781
2023-04-27T10:59:19.839Z,46.850586
2023-04-27T11:00:30.562Z,48.577881
2023-04-27T11:01:40.263Z,47.900391
2023-04-27T11:02:50.054Z,48.223877
2023-04-27T11:03:59.634Z,48.425293
2023-04-27T11:05:08.409Z,48.950195
2023-04-27T11:06:17.102Z,49.822998
2023-04-27T11:07:26.805Z,50.732422
2023-04-27T11:08:36.504Z,49.798584
2023-04-27T11:09:45.223Z,48.773193
2023-04-27T11:10:54.900Z,49.371338
2023-04-27T11:12:04.542Z,50.177002
2023-04-27T11:13:14.267Z,49.749756
2023-04-27T11:14:21.939Z,50.531006
2023-04-27T11:15:30.607Z,49.822998
2023-04-27T11:16:40.383Z,49.395752
2023-04-27T11:17:51.049Z,50.305176
2023-04-27T11:19:00.694Z,50.653076
2023-04-27T11:20:10.398Z,50.55542
2023-04-27T11:21:19.156Z,51.33667
2023-04-27T11:22:28.871Z,50.958252
2023-04-27T11:23:36.522Z,51.379395
2023-04-27T11:24:46.232Z,51.031494
2023-04-27T11:25:55.898Z,49.597168
2023-04-27T11:27:05.696Z,50.10376
2023-04-27T11:28:15.517Z,50.628662
2023-04-27T11:29:25.164Z,50.909424
2023-04-27T11:30:33.826Z,50.427246
2023-04-27T11:31:43.620Z,50.427246
2023-04-27T11:32:52.396Z,50.531006
2023-04-27T11:34:00.242Z,51.660156
2023-04-27T11:35:08.888Z,50.427246
2023-04-27T11:36:17.640Z,50.22583
2023-04-27T11:37:26.365Z,50.402832
2023-04-27T11:38:36.077Z,50.378418
2023-04-27T11:39:44.755Z,49.676514
2023-04-27T11:40:54.419Z,50.201416
2023-04-27T11:42:04.117Z,50.756836
2023-04-27T11:43:12.840Z,51.660156
2023-04-27T11:44:22.519Z,50.45166
2023-04-27T11:45:32.204Z,50.756836
2023-04-27T11:46:40.900Z,50.830078
2023-04-27T11:47:49.610Z,50.805664
2023-04-27T11:48:58.355Z,51.409912
2023-04-27T11:50:09.038Z,51.031494
2023-04-27T11:51:16.896Z,51.031494
2023-04-27T11:52:24.647Z,50.909424
2023-04-27T11:53:34.422Z,50.708008
2023-04-27T11:54:43.143Z,51.434326
2023-04-27T11:55:51.850Z,51.312256
2023-04-27T11:56:59.578Z,51.062012
2023-04-27T11:58:08.264Z,51.135254
2023-04-27T11:59:17.955Z,48.950195
2023-04-27T12:00:25.682Z,49.6521
2023-04-27T12:01:37.935Z,49.047852
2023-04-27T12:02:45.113Z,48.974609
2023-04-27T12:03:52.879Z,49.77417
2023-04-27T12:05:02.638Z,49.353027
2023-04-27T12:06:28.034Z,50.030518
2023-04-27T12:07:21.865Z,48.480225
2023-04-27T12:08:31.528Z,47.576904
2023-04-27T12:09:39.273Z,47.174072
2023-04-27T12:10:47.957Z,47.796631
2023-04-27T12:11:57.698Z,48.980713
2023-04-27T12:13:07.404Z,48.779297
2023-04-27T12:14:16.222Z,48.901367
2023-04-27T12:15:24.784Z,48.144531
2023-04-27T12:16:34.535Z,49.420166
2023-04-27T12:17:44.159Z,50.372314
2023-04-27T12:18:52.869Z,51.611328
2023-04-27T12:20:02.565Z,52.313232
2023-04-27T12:21:12.251Z,52.996826
2023-04-27T12:22:21.920Z,51.885986
2023-04-27T12:23:30.580Z,52.392578
2023-04-27T12:24:39.404Z,51.885986
2023-04-27T12:25:48.059Z,52.337646
2023-04-27T12:26:57.729Z,52.966309
2023-04-27T12:28:07.444Z,52.844238
2023-04-27T12:29:17.270Z,52.490234
2023-04-27T12:30:26.943Z,51.885986
2023-04-27T12:31:36.659Z,51.68457
2023-04-27T12:32:45.322Z,50.756836
2023-04-27T12:33:54.000Z,51.409912
2023-04-27T12:35:03.687Z,50.683594
2023-04-27T12:36:13.375Z,49.554443
2023-04-27T12:37:24.339Z,49.127197
2023-04-27T12:38:32.732Z,49.401855
2023-04-27T12:39:41.452Z,48.876953
2023-04-27T12:40:50.112Z,49.633789
2023-04-27T12:41:59.777Z,49.188232
2023-04-27T12:43:09.424Z,47.607422
2023-04-27T12:44:18.129Z,47.86377
2023-04-27T12:45:26.807Z,47.583008
2023-04-27T12:46:36.502Z,48.010254
2023-04-27T12:47:58.621Z,50.512695
2023-04-27T12:48:54.797Z,48.553467
2023-04-27T12:50:03.495Z,48.901367
2023-04-27T12:51:12.242Z,48.675537
2023-04-27T12:52:21.945Z,47.753906
2023-04-27T12:53:30.593Z,49.230957
2023-04-27T12:54:39.352Z,47.631836
2023-04-27T12:55:49.041Z,47.851562
2023-04-27T12:56:58.669Z,49.127197
2023-04-27T12:58:08.357Z,51.33667
2023-04-27T12:59:17.077Z,52.893066
2023-04-27T13:00:25.753Z,51.837158
2023-04-27T13:01:35.511Z,50.683594
2023-04-27T13:02:44.218Z,49.560547
2023-04-27T13:03:53.886Z,49.041748
2023-04-27T13:05:03.626Z,47.045898
2023-04-27T13:06:12.285Z,45.947266
2023-04-27T13:07:21.079Z,45.428467
2023-04-27T13:08:29.901Z,46.447754
2023-04-27T13:09:39.725Z,45.782471
2023-04-27T13:10:48.385Z,45.141602
2023-04-27T13:11:55.029Z,44.586182